sensor_id;sensor_type;location;lat;lon;timestamp;P1;durP1;ratioP1;P2;durP2;ratioP2
78889;SDS011;68279;48.964;14.502;2023-11-19T00:00:31;8.07;;;3.15;;
78889;SDS011;68279;48.964;14.502;2023-11-19T00:02:56;6.03;;;3.75;;
78889;SDS011;68279;48.964;14.502;2023-11-19T00:05:22;5.82;;;3.72;;
78889;SDS011;68279;48.964;14.502;2023-11-19T00:07:48;4.68;;;3.13;;
78889;SDS011;68279;48.964;14.502;2023-11-19T00:10:14;6.22;;;3.22;;
78889;SDS011;68279;48.964;14.502;2023-11-19T00:12:44;4.40;;;2.25;;
78889;SDS011;68279;48.964;14.502;2023-11-19T00:15:11;5.65;;;4.22;;
78889;SDS011;68279;48.964;14.502;2023-11-19T00:17:40;4.40;;;2.58;;
78889;SDS011;68279;48.964;14.502;2023-11-19T00:20:10;6.15;;;3.25;;
78889;SDS011;68279;48.964;14.502;2023-11-19T00:22:37;6.88;;;3.28;;
78889;SDS011;68279;48.964;14.502;2023-11-19T00:25:02;5.47;;;4.43;;
78889;SDS011;68279;48.964;14.502;2023-11-19T00:27:29;5.82;;;3.08;;
78889;SDS011;68279;48.964;14.502;2023-11-19T00:29:54;5.70;;;3.72;;
78889;SDS011;68279;48.964;14.502;2023-11-19T00:32:20;4.88;;;3.13;;
78889;SDS011;68279;48.964;14.502;2023-11-19T00:34:45;5.65;;;3.20;;
78889;SDS011;68279;48.964;14.502;2023-11-19T00:37:13;7.35;;;3.58;;
78889;SDS011;68279;48.964;14.502;2023-11-19T00:39:40;4.07;;;3.10;;
78889;SDS011;68279;48.964;14.502;2023-11-19T00:42:09;5.75;;;4.15;;
78889;SDS011;68279;48.964;14.502;2023-11-19T00:44:38;5.82;;;2.55;;
78889;SDS011;68279;48.964;14.502;2023-11-19T00:47:04;6.57;;;3.13;;
78889;SDS011;68279;48.964;14.502;2023-11-19T00:49:30;7.97;;;4.57;;
78889;SDS011;68279;48.964;14.502;2023-11-19T00:51:58;6.93;;;3.45;;
78889;SDS011;68279;48.964;14.502;2023-11-19T00:54:24;8.18;;;4.72;;
78889;SDS011;68279;48.964;14.502;2023-11-19T00:56:54;8.40;;;4.43;;
78889;SDS011;68279;48.964;14.502;2023-11-19T00:59:20;8.63;;;4.25;;
78889;SDS011;68279;48.964;14.502;2023-11-19T01:01:46;8.50;;;5.05;;
78889;SDS011;68279;48.964;14.502;2023-11-19T01:04:13;7.25;;;3.38;;
78889;SDS011;68279;48.964;14.502;2023-11-19T01:06:39;6.55;;;3.97;;
78889;SDS011;68279;48.964;14.502;2023-11-19T01:09:05;5.78;;;3.15;;
78889;SDS011;68279;48.964;14.502;2023-11-19T01:11:31;8.07;;;4.32;;
78889;SDS011;68279;48.964;14.502;2023-11-19T01:13:56;6.75;;;3.95;;
78889;SDS011;68279;48.964;14.502;2023-11-19T01:16:22;4.85;;;3.03;;
78889;SDS011;68279;48.964;14.502;2023-11-19T01:18:48;8.38;;;3.25;;
78889;SDS011;68279;48.964;14.502;2023-11-19T01:21:14;6.32;;;3.38;;
78889;SDS011;68279;48.964;14.502;2023-11-19T01:23:40;7.32;;;3.22;;
78889;SDS011;68279;48.964;14.502;2023-11-19T01:26:08;7.18;;;4.10;;
78889;SDS011;68279;48.964;14.502;2023-11-19T01:28:38;5.28;;;3.15;;
78889;SDS011;68279;48.964;14.502;2023-11-19T01:31:10;6.07;;;2.85;;
78889;SDS011;68279;48.964;14.502;2023-11-19T01:33:36;6.05;;;2.67;;
78889;SDS011;68279;48.964;14.502;2023-11-19T01:36:02;5.78;;;4.00;;
78889;SDS011;68279;48.964;14.502;2023-11-19T01:38:29;4.25;;;3.42;;
78889;SDS011;68279;48.964;14.502;2023-11-19T01:40:56;6.70;;;3.60;;
78889;SDS011;68279;48.964;14.502;2023-11-19T01:45:58;4.43;;;2.50;;
78889;SDS011;68279;48.964;14.502;2023-11-19T01:48:24;6.50;;;2.72;;
78889;SDS011;68279;48.964;14.502;2023-11-19T01:50:50;6.15;;;2.75;;
78889;SDS011;68279;48.964;14.502;2023-11-19T01:53:17;7.03;;;2.65;;
78889;SDS011;68279;48.964;14.502;2023-11-19T01:55:43;4.57;;;2.65;;
78889;SDS011;68279;48.964;14.502;2023-11-19T01:58:09;5.78;;;2.58;;
78889;SDS011;68279;48.964;14.502;2023-11-19T02:00:35;7.43;;;3.53;;
78889;SDS011;68279;48.964;14.502;2023-11-19T02:03:00;5.45;;;3.40;;
78889;SDS011;68279;48.964;14.502;2023-11-19T02:05:26;3.13;;;2.00;;
78889;SDS011;68279;48.964;14.502;2023-11-19T02:07:51;4.10;;;1.98;;
78889;SDS011;68279;48.964;14.502;2023-11-19T02:10:17;6.25;;;1.85;;
78889;SDS011;68279;48.964;14.502;2023-11-19T02:12:44;5.18;;;3.15;;
78889;SDS011;68279;48.964;14.502;2023-11-19T02:15:11;4.25;;;2.42;;
78889;SDS011;68279;48.964;14.502;2023-11-19T02:17:36;5.32;;;3.63;;
78889;SDS011;68279;48.964;14.502;2023-11-19T02:20:03;3.03;;;1.85;;
78889;SDS011;68279;48.964;14.502;2023-11-19T02:22:32;4.30;;;2.83;;
78889;SDS011;68279;48.964;14.502;2023-11-19T02:25:02;3.70;;;2.63;;
78889;SDS011;68279;48.964;14.502;2023-11-19T02:29:59;2.78;;;2.50;;
78889;SDS011;68279;48.964;14.502;2023-11-19T02:32:27;2.03;;;1.45;;
78889;SDS011;68279;48.964;14.502;2023-11-19T02:34:53;4.07;;;1.75;;
78889;SDS011;68279;48.964;14.502;2023-11-19T02:37:19;2.92;;;1.90;;
78889;SDS011;68279;48.964;14.502;2023-11-19T02:39:44;4.60;;;2.30;;
78889;SDS011;68279;48.964;14.502;2023-11-19T02:42:10;2.08;;;1.23;;
78889;SDS011;68279;48.964;14.502;2023-11-19T02:44:36;1.42;;;0.93;;
78889;SDS011;68279;48.964;14.502;2023-11-19T02:47:01;3.45;;;1.92;;
78889;SDS011;68279;48.964;14.502;2023-11-19T02:49:28;1.65;;;1.13;;
78889;SDS011;68279;48.964;14.502;2023-11-19T02:51:54;2.88;;;1.85;;
78889;SDS011;68279;48.964;14.502;2023-11-19T02:54:19;3.63;;;1.73;;
78889;SDS011;68279;48.964;14.502;2023-11-19T02:56:46;1.50;;;0.98;;
78889;SDS011;68279;48.964;14.502;2023-11-19T02:59:20;1.40;;;0.80;;
78889;SDS011;68279;48.964;14.502;2023-11-19T03:01:52;3.03;;;1.65;;
78889;SDS011;68279;48.964;14.502;2023-11-19T03:04:19;1.80;;;1.10;;
78889;SDS011;68279;48.964;14.502;2023-11-19T03:06:48;1.83;;;1.13;;
78889;SDS011;68279;48.964;14.502;2023-11-19T03:09:14;2.00;;;1.33;;
78889;SDS011;68279;48.964;14.502;2023-11-19T03:11:40;1.55;;;1.05;;
78889;SDS011;68279;48.964;14.502;2023-11-19T03:14:05;1.92;;;1.35;;
78889;SDS011;68279;48.964;14.502;2023-11-19T03:16:31;2.10;;;1.38;;
78889;SDS011;68279;48.964;14.502;2023-11-19T03:18:57;1.08;;;0.68;;
78889;SDS011;68279;48.964;14.502;2023-11-19T03:21:28;1.38;;;0.88;;
78889;SDS011;68279;48.964;14.502;2023-11-19T03:23:54;2.25;;;1.17;;
78889;SDS011;68279;48.964;14.502;2023-11-19T03:26:20;1.35;;;0.80;;
78889;SDS011;68279;48.964;14.502;2023-11-19T03:28:47;1.80;;;1.50;;
78889;SDS011;68279;48.964;14.502;2023-11-19T03:31:12;1.83;;;0.80;;
78889;SDS011;68279;48.964;14.502;2023-11-19T03:33:39;2.00;;;0.80;;
78889;SDS011;68279;48.964;14.502;2023-11-19T03:36:05;1.00;;;0.90;;
78889;SDS011;68279;48.964;14.502;2023-11-19T03:38:31;1.25;;;0.80;;
78889;SDS011;68279;48.964;14.502;2023-11-19T03:40:56;1.55;;;1.00;;
78889;SDS011;68279;48.964;14.502;2023-11-19T03:43:22;2.15;;;0.93;;
78889;SDS011;68279;48.964;14.502;2023-11-19T03:45:47;1.33;;;0.55;;
78889;SDS011;68279;48.964;14.502;2023-11-19T03:48:13;1.17;;;0.70;;
78889;SDS011;68279;48.964;14.502;2023-11-19T03:50:41;0.80;;;0.60;;
78889;SDS011;68279;48.964;14.502;2023-11-19T03:53:07;1.70;;;1.08;;
78889;SDS011;68279;48.964;14.502;2023-11-19T03:55:33;1.15;;;0.70;;
78889;SDS011;68279;48.964;14.502;2023-11-19T03:57:58;1.02;;;0.40;;
78889;SDS011;68279;48.964;14.502;2023-11-19T04:00:24;2.75;;;0.85;;
78889;SDS011;68279;48.964;14.502;2023-11-19T04:02:49;2.33;;;1.13;;
78889;SDS011;68279;48.964;14.502;2023-11-19T04:05:15;2.58;;;1.73;;
78889;SDS011;68279;48.964;14.502;2023-11-19T04:07:41;1.02;;;0.73;;
78889;SDS011;68279;48.964;14.502;2023-11-19T04:10:06;1.30;;;0.90;;
78889;SDS011;68279;48.964;14.502;2023-11-19T04:12:32;2.38;;;1.00;;
78889;SDS011;68279;48.964;14.502;2023-11-19T04:14:58;1.08;;;0.63;;
78889;SDS011;68279;48.964;14.502;2023-11-19T04:17:23;1.23;;;0.93;;
78889;SDS011;68279;48.964;14.502;2023-11-19T04:19:50;1.20;;;0.60;;
78889;SDS011;68279;48.964;14.502;2023-11-19T04:22:15;1.95;;;1.27;;
78889;SDS011;68279;48.964;14.502;2023-11-19T04:24:41;0.90;;;0.60;;
78889;SDS011;68279;48.964;14.502;2023-11-19T04:27:09;1.23;;;0.93;;
78889;SDS011;68279;48.964;14.502;2023-11-19T04:29:34;1.52;;;0.90;;
78889;SDS011;68279;48.964;14.502;2023-11-19T04:32:00;1.52;;;0.85;;
78889;SDS011;68279;48.964;14.502;2023-11-19T04:34:26;0.82;;;0.65;;
78889;SDS011;68279;48.964;14.502;2023-11-19T04:36:51;2.70;;;0.90;;
78889;SDS011;68279;48.964;14.502;2023-11-19T04:39:17;0.93;;;0.80;;
78889;SDS011;68279;48.964;14.502;2023-11-19T04:41:47;1.35;;;0.95;;
78889;SDS011;68279;48.964;14.502;2023-11-19T04:44:19;1.17;;;0.82;;
78889;SDS011;68279;48.964;14.502;2023-11-19T04:46:45;1.02;;;0.60;;
78889;SDS011;68279;48.964;14.502;2023-11-19T04:49:12;1.15;;;0.57;;
78889;SDS011;68279;48.964;14.502;2023-11-19T04:51:42;0.73;;;0.43;;
78889;SDS011;68279;48.964;14.502;2023-11-19T04:54:10;0.80;;;0.50;;
78889;SDS011;68279;48.964;14.502;2023-11-19T04:56:36;1.92;;;0.80;;
78889;SDS011;68279;48.964;14.502;2023-11-19T04:59:02;0.90;;;0.73;;
78889;SDS011;68279;48.964;14.502;2023-11-19T05:01:28;1.00;;;0.47;;
78889;SDS011;68279;48.964;14.502;2023-11-19T05:03:55;1.05;;;0.85;;
78889;SDS011;68279;48.964;14.502;2023-11-19T05:06:33;0.75;;;0.68;;
78889;SDS011;68279;48.964;14.502;2023-11-19T05:09:00;0.80;;;0.60;;
78889;SDS011;68279;48.964;14.502;2023-11-19T05:11:35;1.20;;;0.60;;
78889;SDS011;68279;48.964;14.502;2023-11-19T05:14:02;2.20;;;1.08;;
78889;SDS011;68279;48.964;14.502;2023-11-19T05:16:29;1.10;;;0.65;;
78889;SDS011;68279;48.964;14.502;2023-11-19T05:18:54;1.45;;;0.75;;
78889;SDS011;68279;48.964;14.502;2023-11-19T05:21:20;0.90;;;0.60;;
78889;SDS011;68279;48.964;14.502;2023-11-19T05:23:46;1.13;;;0.70;;
78889;SDS011;68279;48.964;14.502;2023-11-19T05:26:21;1.15;;;0.70;;
78889;SDS011;68279;48.964;14.502;2023-11-19T05:28:49;0.52;;;0.40;;
78889;SDS011;68279;48.964;14.502;2023-11-19T05:31:16;0.32;;;0.30;;
78889;SDS011;68279;48.964;14.502;2023-11-19T05:33:42;0.82;;;0.50;;
78889;SDS011;68279;48.964;14.502;2023-11-19T05:36:08;0.93;;;0.73;;
78889;SDS011;68279;48.964;14.502;2023-11-19T05:38:35;0.90;;;0.60;;
78889;SDS011;68279;48.964;14.502;2023-11-19T05:41:01;0.43;;;0.40;;
78889;SDS011;68279;48.964;14.502;2023-11-19T05:43:27;0.65;;;0.60;;
78889;SDS011;68279;48.964;14.502;2023-11-19T05:45:54;1.15;;;0.75;;
78889;SDS011;68279;48.964;14.502;2023-11-19T05:48:19;0.68;;;0.60;;
78889;SDS011;68279;48.964;14.502;2023-11-19T05:50:48;0.90;;;0.57;;
78889;SDS011;68279;48.964;14.502;2023-11-19T05:53:17;1.25;;;0.60;;
78889;SDS011;68279;48.964;14.502;2023-11-19T05:55:43;1.05;;;0.75;;
78889;SDS011;68279;48.964;14.502;2023-11-19T05:58:15;1.05;;;0.68;;
78889;SDS011;68279;48.964;14.502;2023-11-19T06:00:41;0.60;;;0.50;;
78889;SDS011;68279;48.964;14.502;2023-11-19T06:03:09;0.55;;;0.55;;
78889;SDS011;68279;48.964;14.502;2023-11-19T06:05:35;0.60;;;0.40;;
78889;SDS011;68279;48.964;14.502;2023-11-19T06:08:00;2.15;;;0.60;;
78889;SDS011;68279;48.964;14.502;2023-11-19T06:10:26;1.17;;;0.50;;
78889;SDS011;68279;48.964;14.502;2023-11-19T06:12:58;0.52;;;0.52;;
78889;SDS011;68279;48.964;14.502;2023-11-19T06:15:28;1.02;;;0.75;;
78889;SDS011;68279;48.964;14.502;2023-11-19T06:17:53;0.73;;;0.55;;
78889;SDS011;68279;48.964;14.502;2023-11-19T06:20:20;0.57;;;0.40;;
78889;SDS011;68279;48.964;14.502;2023-11-19T06:22:46;0.40;;;0.40;;
78889;SDS011;68279;48.964;14.502;2023-11-19T06:25:11;0.65;;;0.40;;
78889;SDS011;68279;48.964;14.502;2023-11-19T06:27:40;0.30;;;0.25;;
78889;SDS011;68279;48.964;14.502;2023-11-19T06:30:06;1.95;;;0.60;;
78889;SDS011;68279;48.964;14.502;2023-11-19T06:32:32;0.55;;;0.40;;
78889;SDS011;68279;48.964;14.502;2023-11-19T06:34:58;1.00;;;0.73;;
78889;SDS011;68279;48.964;14.502;2023-11-19T06:37:24;0.52;;;0.43;;
78889;SDS011;68279;48.964;14.502;2023-11-19T06:39:49;0.50;;;0.40;;
78889;SDS011;68279;48.964;14.502;2023-11-19T06:42:15;0.65;;;0.65;;
78889;SDS011;68279;48.964;14.502;2023-11-19T06:44:40;0.30;;;0.30;;
78889;SDS011;68279;48.964;14.502;2023-11-19T06:47:06;0.32;;;0.30;;
78889;SDS011;68279;48.964;14.502;2023-11-19T06:49:32;0.70;;;0.40;;
78889;SDS011;68279;48.964;14.502;2023-11-19T06:51:58;0.98;;;0.60;;
78889;SDS011;68279;48.964;14.502;2023-11-19T06:54:24;0.60;;;0.50;;
78889;SDS011;68279;48.964;14.502;2023-11-19T06:56:49;0.70;;;0.52;;
78889;SDS011;68279;48.964;14.502;2023-11-19T06:59:15;0.55;;;0.45;;
78889;SDS011;68279;48.964;14.502;2023-11-19T07:01:40;0.40;;;0.30;;
78889;SDS011;68279;48.964;14.502;2023-11-19T07:04:11;0.52;;;0.40;;
78889;SDS011;68279;48.964;14.502;2023-11-19T07:06:37;0.98;;;0.55;;
78889;SDS011;68279;48.964;14.502;2023-11-19T07:09:06;0.93;;;0.43;;
78889;SDS011;68279;48.964;14.502;2023-11-19T07:11:38;0.60;;;0.50;;
78889;SDS011;68279;48.964;14.502;2023-11-19T07:14:06;0.70;;;0.70;;
78889;SDS011;68279;48.964;14.502;2023-11-19T07:16:34;1.17;;;0.50;;
78889;SDS011;68279;48.964;14.502;2023-11-19T07:19:03;0.40;;;0.40;;
78889;SDS011;68279;48.964;14.502;2023-11-19T07:21:30;0.50;;;0.50;;
78889;SDS011;68279;48.964;14.502;2023-11-19T07:23:56;0.52;;;0.52;;
78889;SDS011;68279;48.964;14.502;2023-11-19T07:26:22;1.70;;;0.40;;
78889;SDS011;68279;48.964;14.502;2023-11-19T07:28:51;0.55;;;0.32;;
78889;SDS011;68279;48.964;14.502;2023-11-19T07:31:18;0.95;;;0.93;;
78889;SDS011;68279;48.964;14.502;2023-11-19T07:33:45;0.80;;;0.60;;
78889;SDS011;68279;48.964;14.502;2023-11-19T07:36:11;0.43;;;0.40;;
78889;SDS011;68279;48.964;14.502;2023-11-19T07:38:37;0.30;;;0.30;;
78889;SDS011;68279;48.964;14.502;2023-11-19T07:41:03;0.68;;;0.40;;
78889;SDS011;68279;48.964;14.502;2023-11-19T07:43:30;0.85;;;0.60;;
78889;SDS011;68279;48.964;14.502;2023-11-19T07:45:56;1.05;;;0.57;;
78889;SDS011;68279;48.964;14.502;2023-11-19T07:48:24;1.77;;;0.40;;
78889;SDS011;68279;48.964;14.502;2023-11-19T07:50:51;0.98;;;0.52;;
78889;SDS011;68279;48.964;14.502;2023-11-19T07:53:17;0.82;;;0.50;;
78889;SDS011;68279;48.964;14.502;2023-11-19T07:55:43;0.88;;;0.50;;
78889;SDS011;68279;48.964;14.502;2023-11-19T07:58:09;1.10;;;0.70;;
78889;SDS011;68279;48.964;14.502;2023-11-19T08:00:36;1.45;;;0.93;;
78889;SDS011;68279;48.964;14.502;2023-11-19T08:03:03;0.43;;;0.43;;
78889;SDS011;68279;48.964;14.502;2023-11-19T08:05:32;0.70;;;0.40;;
78889;SDS011;68279;48.964;14.502;2023-11-19T08:07:58;1.30;;;0.77;;
78889;SDS011;68279;48.964;14.502;2023-11-19T08:10:25;1.05;;;0.60;;
78889;SDS011;68279;48.964;14.502;2023-11-19T08:12:52;0.93;;;0.40;;
78889;SDS011;68279;48.964;14.502;2023-11-19T08:15:17;1.23;;;0.55;;
78889;SDS011;68279;48.964;14.502;2023-11-19T08:20:17;1.45;;;0.82;;
78889;SDS011;68279;48.964;14.502;2023-11-19T08:22:42;1.27;;;1.17;;
78889;SDS011;68279;48.964;14.502;2023-11-19T08:25:08;1.45;;;1.05;;
78889;SDS011;68279;48.964;14.502;2023-11-19T08:27:36;0.55;;;0.47;;
78889;SDS011;68279;48.964;14.502;2023-11-19T08:30:02;0.70;;;0.30;;
78889;SDS011;68279;48.964;14.502;2023-11-19T08:32:28;1.00;;;0.73;;
78889;SDS011;68279;48.964;14.502;2023-11-19T08:34:54;1.30;;;0.60;;
78889;SDS011;68279;48.964;14.502;2023-11-19T08:37:21;1.83;;;1.10;;
78889;SDS011;68279;48.964;14.502;2023-11-19T08:39:47;1.83;;;1.33;;
78889;SDS011;68279;48.964;14.502;2023-11-19T08:42:18;1.35;;;0.63;;
78889;SDS011;68279;48.964;14.502;2023-11-19T08:44:49;1.20;;;0.60;;
78889;SDS011;68279;48.964;14.502;2023-11-19T08:47:22;0.77;;;0.50;;
78889;SDS011;68279;48.964;14.502;2023-11-19T08:49:50;0.80;;;0.55;;
78889;SDS011;68279;48.964;14.502;2023-11-19T08:52:17;1.08;;;0.60;;
78889;SDS011;68279;48.964;14.502;2023-11-19T08:54:44;1.40;;;0.77;;
78889;SDS011;68279;48.964;14.502;2023-11-19T08:57:10;1.30;;;0.60;;
78889;SDS011;68279;48.964;14.502;2023-11-19T08:59:35;9.20;;;1.13;;
78889;SDS011;68279;48.964;14.502;2023-11-19T09:02:03;1.58;;;0.50;;
78889;SDS011;68279;48.964;14.502;2023-11-19T09:04:30;0.93;;;0.80;;
78889;SDS011;68279;48.964;14.502;2023-11-19T09:06:57;0.90;;;0.55;;
78889;SDS011;68279;48.964;14.502;2023-11-19T09:09:23;1.40;;;0.85;;
78889;SDS011;68279;48.964;14.502;2023-11-19T09:11:50;1.02;;;0.60;;
78889;SDS011;68279;48.964;14.502;2023-11-19T09:14:16;0.60;;;0.50;;
78889;SDS011;68279;48.964;14.502;2023-11-19T09:16:43;1.77;;;1.10;;
78889;SDS011;68279;48.964;14.502;2023-11-19T09:19:09;0.95;;;0.50;;
78889;SDS011;68279;48.964;14.502;2023-11-19T09:21:34;1.02;;;0.75;;
78889;SDS011;68279;48.964;14.502;2023-11-19T09:24:04;2.00;;;0.60;;
78889;SDS011;68279;48.964;14.502;2023-11-19T09:26:30;1.23;;;0.75;;
78889;SDS011;68279;48.964;14.502;2023-11-19T09:28:56;1.00;;;0.63;;
78889;SDS011;68279;48.964;14.502;2023-11-19T09:31:21;1.48;;;0.90;;
78889;SDS011;68279;48.964;14.502;2023-11-19T09:33:47;1.00;;;0.63;;
78889;SDS011;68279;48.964;14.502;2023-11-19T09:36:12;1.05;;;0.45;;
78889;SDS011;68279;48.964;14.502;2023-11-19T09:38:44;0.55;;;0.30;;
78889;SDS011;68279;48.964;14.502;2023-11-19T09:41:10;0.85;;;0.50;;
78889;SDS011;68279;48.964;14.502;2023-11-19T09:43:41;0.68;;;0.50;;
78889;SDS011;68279;48.964;14.502;2023-11-19T09:46:11;1.38;;;0.65;;
78889;SDS011;68279;48.964;14.502;2023-11-19T09:48:39;0.60;;;0.52;;
78889;SDS011;68279;48.964;14.502;2023-11-19T09:51:07;0.88;;;0.50;;
78889;SDS011;68279;48.964;14.502;2023-11-19T09:53:35;1.88;;;0.70;;
78889;SDS011;68279;48.964;14.502;2023-11-19T09:56:05;1.60;;;0.75;;
78889;SDS011;68279;48.964;14.502;2023-11-19T09:58:33;1.90;;;0.85;;
78889;SDS011;68279;48.964;14.502;2023-11-19T10:00:59;2.55;;;1.00;;
78889;SDS011;68279;48.964;14.502;2023-11-19T10:03:32;1.77;;;0.60;;
78889;SDS011;68279;48.964;14.502;2023-11-19T10:06:09;1.23;;;0.73;;
78889;SDS011;68279;48.964;14.502;2023-11-19T10:08:39;1.05;;;0.52;;
78889;SDS011;68279;48.964;14.502;2023-11-19T10:11:06;1.20;;;0.60;;
78889;SDS011;68279;48.964;14.502;2023-11-19T10:13:32;2.75;;;0.80;;
78889;SDS011;68279;48.964;14.502;2023-11-19T10:16:09;2.13;;;1.10;;
78889;SDS011;68279;48.964;14.502;2023-11-19T10:18:45;1.98;;;0.57;;
78889;SDS011;68279;48.964;14.502;2023-11-19T10:21:15;2.45;;;0.90;;
78889;SDS011;68279;48.964;14.502;2023-11-19T10:23:50;1.02;;;0.60;;
78889;SDS011;68279;48.964;14.502;2023-11-19T10:26:17;2.28;;;0.93;;
78889;SDS011;68279;48.964;14.502;2023-11-19T10:28:43;1.48;;;0.93;;
78889;SDS011;68279;48.964;14.502;2023-11-19T10:31:12;1.17;;;0.73;;
78889;SDS011;68279;48.964;14.502;2023-11-19T10:33:42;1.95;;;0.70;;
78889;SDS011;68279;48.964;14.502;2023-11-19T10:36:10;1.35;;;0.82;;
78889;SDS011;68279;48.964;14.502;2023-11-19T10:38:39;1.63;;;0.82;;
78889;SDS011;68279;48.964;14.502;2023-11-19T10:41:05;2.35;;;1.05;;
78889;SDS011;68279;48.964;14.502;2023-11-19T10:43:31;2.35;;;0.68;;
78889;SDS011;68279;48.964;14.502;2023-11-19T10:46:10;2.67;;;1.08;;
78889;SDS011;68279;48.964;14.502;2023-11-19T10:48:37;2.65;;;0.80;;
78889;SDS011;68279;48.964;14.502;2023-11-19T10:51:04;1.33;;;0.70;;
78889;SDS011;68279;48.964;14.502;2023-11-19T10:53:37;1.25;;;0.80;;
78889;SDS011;68279;48.964;14.502;2023-11-19T10:56:10;3.53;;;1.60;;
78889;SDS011;68279;48.964;14.502;2023-11-19T10:58:43;2.42;;;0.80;;
78889;SDS011;68279;48.964;14.502;2023-11-19T11:03:47;2.40;;;1.20;;
78889;SDS011;68279;48.964;14.502;2023-11-19T11:06:16;2.15;;;1.08;;
78889;SDS011;68279;48.964;14.502;2023-11-19T11:08:43;3.45;;;1.20;;
78889;SDS011;68279;48.964;14.502;2023-11-19T11:11:11;1.52;;;0.88;;
78889;SDS011;68279;48.964;14.502;2023-11-19T11:13:42;3.13;;;0.80;;
78889;SDS011;68279;48.964;14.502;2023-11-19T11:16:08;1.42;;;0.65;;
78889;SDS011;68279;48.964;14.502;2023-11-19T11:18:34;2.08;;;0.80;;
78889;SDS011;68279;48.964;14.502;2023-11-19T11:21:10;0.65;;;0.43;;
78889;SDS011;68279;48.964;14.502;2023-11-19T11:23:53;1.25;;;0.68;;
78889;SDS011;68279;48.964;14.502;2023-11-19T11:26:39;1.20;;;0.63;;
78889;SDS011;68279;48.964;14.502;2023-11-19T11:38:21;0.68;;;0.43;;
78889;SDS011;68279;48.964;14.502;2023-11-19T11:43:48;0.68;;;0.50;;
78889;SDS011;68279;48.964;14.502;2023-11-19T11:46:59;0.68;;;0.50;;
78889;SDS011;68279;48.964;14.502;2023-11-19T11:49:04;1.23;;;0.60;;
78889;SDS011;68279;48.964;14.502;2023-11-19T11:54:10;1.13;;;0.82;;
78889;SDS011;68279;48.964;14.502;2023-11-19T11:56:39;1.17;;;0.75;;
78889;SDS011;68279;48.964;14.502;2023-11-19T11:59:07;1.40;;;0.85;;
78889;SDS011;68279;48.964;14.502;2023-11-19T12:02:05;2.00;;;0.68;;
78889;SDS011;68279;48.964;14.502;2023-11-19T12:04:33;1.17;;;0.73;;
78889;SDS011;68279;48.964;14.502;2023-11-19T12:07:04;1.55;;;0.90;;
78889;SDS011;68279;48.964;14.502;2023-11-19T12:09:30;1.52;;;0.93;;
78889;SDS011;68279;48.964;14.502;2023-11-19T12:20:05;1.00;;;0.70;;
78889;SDS011;68279;48.964;14.502;2023-11-19T12:22:37;1.38;;;0.60;;
78889;SDS011;68279;48.964;14.502;2023-11-19T12:25:07;2.25;;;0.73;;
78889;SDS011;68279;48.964;14.502;2023-11-19T12:27:39;0.40;;;0.20;;
78889;SDS011;68279;48.964;14.502;2023-11-19T12:30:09;0.82;;;0.47;;
78889;SDS011;68279;48.964;14.502;2023-11-19T12:32:38;1.13;;;0.52;;
78889;SDS011;68279;48.964;14.502;2023-11-19T12:35:05;0.70;;;0.70;;
78889;SDS011;68279;48.964;14.502;2023-11-19T12:37:30;1.13;;;0.80;;
78889;SDS011;68279;48.964;14.502;2023-11-19T12:39:57;1.25;;;0.60;;
78889;SDS011;68279;48.964;14.502;2023-11-19T12:42:36;1.42;;;0.93;;
78889;SDS011;68279;48.964;14.502;2023-11-19T12:45:02;1.20;;;0.93;;
78889;SDS011;68279;48.964;14.502;2023-11-19T12:47:29;1.15;;;0.68;;
78889;SDS011;68279;48.964;14.502;2023-11-19T12:49:58;0.77;;;0.73;;
78889;SDS011;68279;48.964;14.502;2023-11-19T12:52:23;0.98;;;0.52;;
78889;SDS011;68279;48.964;14.502;2023-11-19T12:54:49;1.02;;;0.80;;
78889;SDS011;68279;48.964;14.502;2023-11-19T12:57:15;1.42;;;1.15;;
78889;SDS011;68279;48.964;14.502;2023-11-19T12:59:41;1.35;;;0.60;;
78889;SDS011;68279;48.964;14.502;2023-11-19T13:02:08;1.10;;;0.52;;
78889;SDS011;68279;48.964;14.502;2023-11-19T13:04:33;1.48;;;0.63;;
78889;SDS011;68279;48.964;14.502;2023-11-19T13:07:00;2.45;;;1.08;;
78889;SDS011;68279;48.964;14.502;2023-11-19T13:09:26;1.42;;;1.05;;
78889;SDS011;68279;48.964;14.502;2023-11-19T13:11:53;2.17;;;0.98;;
78889;SDS011;68279;48.964;14.502;2023-11-19T13:14:19;2.00;;;0.82;;
78889;SDS011;68279;48.964;14.502;2023-11-19T13:16:45;1.40;;;0.82;;
78889;SDS011;68279;48.964;14.502;2023-11-19T13:19:15;2.33;;;0.80;;
78889;SDS011;68279;48.964;14.502;2023-11-19T13:21:44;2.92;;;1.40;;
78889;SDS011;68279;48.964;14.502;2023-11-19T13:24:13;3.65;;;1.20;;
78889;SDS011;68279;48.964;14.502;2023-11-19T13:26:39;3.08;;;0.95;;
78889;SDS011;68279;48.964;14.502;2023-11-19T13:29:04;1.50;;;0.55;;
78889;SDS011;68279;48.964;14.502;2023-11-19T13:31:30;2.33;;;0.98;;
78889;SDS011;68279;48.964;14.502;2023-11-19T13:33:56;4.47;;;1.63;;
78889;SDS011;68279;48.964;14.502;2023-11-19T13:36:23;2.10;;;1.63;;
78889;SDS011;68279;48.964;14.502;2023-11-19T13:38:50;0.95;;;0.73;;
78889;SDS011;68279;48.964;14.502;2023-11-19T13:41:16;0.68;;;0.45;;
78889;SDS011;68279;48.964;14.502;2023-11-19T13:43:41;1.42;;;0.85;;
78889;SDS011;68279;48.964;14.502;2023-11-19T13:46:07;1.10;;;0.85;;
78889;SDS011;68279;48.964;14.502;2023-11-19T13:48:35;0.63;;;0.40;;
78889;SDS011;68279;48.964;14.502;2023-11-19T13:51:00;0.85;;;0.63;;
78889;SDS011;68279;48.964;14.502;2023-11-19T13:53:26;1.23;;;0.52;;
78889;SDS011;68279;48.964;14.502;2023-11-19T13:55:52;0.70;;;0.40;;
78889;SDS011;68279;48.964;14.502;2023-11-19T13:58:18;1.23;;;0.75;;
78889;SDS011;68279;48.964;14.502;2023-11-19T14:00:43;2.38;;;0.50;;
78889;SDS011;68279;48.964;14.502;2023-11-19T14:03:09;2.20;;;0.77;;
78889;SDS011;68279;48.964;14.502;2023-11-19T14:05:38;1.30;;;0.88;;
78889;SDS011;68279;48.964;14.502;2023-11-19T14:08:04;1.48;;;0.80;;
78889;SDS011;68279;48.964;14.502;2023-11-19T14:10:37;1.92;;;0.93;;
78889;SDS011;68279;48.964;14.502;2023-11-19T14:13:04;1.25;;;0.63;;
78889;SDS011;68279;48.964;14.502;2023-11-19T14:15:30;2.25;;;1.17;;
78889;SDS011;68279;48.964;14.502;2023-11-19T14:17:56;1.90;;;0.73;;
78889;SDS011;68279;48.964;14.502;2023-11-19T14:20:22;0.60;;;0.40;;
78889;SDS011;68279;48.964;14.502;2023-11-19T14:22:47;1.40;;;0.88;;
78889;SDS011;68279;48.964;14.502;2023-11-19T14:25:15;1.13;;;0.52;;
78889;SDS011;68279;48.964;14.502;2023-11-19T14:27:41;2.78;;;1.00;;
78889;SDS011;68279;48.964;14.502;2023-11-19T14:30:12;1.40;;;0.85;;
78889;SDS011;68279;48.964;14.502;2023-11-19T14:32:41;1.13;;;0.77;;
78889;SDS011;68279;48.964;14.502;2023-11-19T14:35:09;1.35;;;0.75;;
78889;SDS011;68279;48.964;14.502;2023-11-19T14:37:34;1.55;;;0.85;;
78889;SDS011;68279;48.964;14.502;2023-11-19T14:40:01;1.15;;;0.50;;
78889;SDS011;68279;48.964;14.502;2023-11-19T14:42:31;1.70;;;0.90;;
78889;SDS011;68279;48.964;14.502;2023-11-19T14:44:56;1.48;;;0.82;;
78889;SDS011;68279;48.964;14.502;2023-11-19T14:47:22;1.83;;;0.95;;
78889;SDS011;68279;48.964;14.502;2023-11-19T14:49:48;1.48;;;0.90;;
78889;SDS011;68279;48.964;14.502;2023-11-19T14:52:14;1.52;;;0.93;;
78889;SDS011;68279;48.964;14.502;2023-11-19T14:54:39;1.48;;;0.80;;
78889;SDS011;68279;48.964;14.502;2023-11-19T14:57:05;2.38;;;1.00;;
78889;SDS011;68279;48.964;14.502;2023-11-19T14:59:33;2.20;;;0.80;;
78889;SDS011;68279;48.964;14.502;2023-11-19T15:01:59;2.33;;;0.82;;
78889;SDS011;68279;48.964;14.502;2023-11-19T15:04:26;3.80;;;1.60;;
78889;SDS011;68279;48.964;14.502;2023-11-19T15:06:52;4.70;;;1.25;;